createdAt,value
2019-01-03T00:01:50.907Z,1.70
2019-01-03T00:04:36.382Z,1.87
2019-01-03T00:07:18.029Z,2.43
2019-01-03T00:10:10.018Z,3.10
2019-01-03T00:13:00.083Z,2.20
2019-01-03T00:15:57.884Z,2.13
2019-01-03T00:18:56.078Z,2.03
2019-01-03T00:21:44.096Z,1.80
2019-01-03T00:24:42.080Z,2.00
2019-01-03T00:27:33.493Z,1.33
2019-01-03T00:30:21.238Z,1.07
2019-01-03T00:33:09.755Z,1.37
2019-01-03T00:35:57.620Z,1.13
2019-01-03T00:38:40.709Z,1.67
2019-01-03T00:41:38.341Z,1.27
2019-01-03T00:44:47.002Z,1.17
2019-01-03T00:47:34.400Z,1.13
2019-01-03T00:50:22.780Z,0.93
2019-01-03T00:53:11.760Z,1.20
2019-01-03T00:56:03.674Z,1.40
2019-01-03T00:58:49.974Z,1.27
2019-01-03T01:01:51.174Z,1.07
2019-01-03T01:04:38.973Z,1.57
2019-01-03T01:07:46.304Z,1.50
2019-01-03T01:10:38.597Z,1.10
2019-01-03T01:13:40.722Z,1.03
2019-01-03T01:16:32.561Z,1.17
2019-01-03T01:19:20.300Z,1.20
2019-01-03T01:22:15.428Z,1.30
2019-01-03T01:25:03.207Z,1.13
2019-01-03T01:27:52.229Z,1.10
2019-01-03T01:30:33.376Z,1.30
2019-01-03T01:33:21.018Z,2.10
2019-01-03T01:36:10.273Z,1.37
2019-01-03T01:39:02.661Z,1.47
2019-01-03T01:41:58.745Z,1.30
2019-01-03T01:44:56.507Z,2.67
2019-01-03T01:47:34.353Z,1.57
2019-01-03T01:50:28.699Z,2.20
2019-01-03T01:53:16.703Z,1.10
2019-01-03T01:56:11.474Z,1.10
2019-01-03T01:58:58.204Z,1.00
2019-01-03T02:01:45.883Z,1.47
2019-01-03T02:04:29.667Z,0.90
2019-01-03T02:07:14.759Z,1.80
2019-01-03T02:10:02.058Z,2.67
2019-01-03T02:12:49.555Z,1.33
2019-01-03T02:15:34.675Z,1.60
2019-01-03T02:18:28.183Z,1.80
2019-01-03T02:21:21.442Z,1.43
2019-01-03T02:24:22.207Z,1.40
2019-01-03T02:27:10.809Z,1.50
2019-01-03T02:29:59.056Z,1.13
2019-01-03T02:32:50.432Z,1.23
2019-01-03T02:35:44.156Z,0.90
2019-01-03T02:38:31.565Z,1.07
2019-01-03T02:41:29.802Z,1.00
2019-01-03T02:44:17.215Z,1.00
2019-01-03T02:47:10.071Z,1.10
2019-01-03T02:50:17.014Z,1.23
2019-01-03T02:53:15.025Z,1.13
2019-01-03T02:56:06.600Z,1.03
2019-01-03T02:58:52.522Z,1.13
2019-01-03T03:01:37.011Z,1.10
2019-01-03T03:04:25.247Z,1.10
2019-01-03T03:07:20.047Z,1.20
2019-01-03T03:10:08.853Z,0.87
2019-01-03T03:13:15.934Z,1.30
2019-01-03T03:16:12.839Z,2.30
2019-01-03T03:19:01.629Z,1.40
2019-01-03T03:21:39.559Z,1.27
2019-01-03T03:24:31.931Z,1.10
2019-01-03T03:27:19.671Z,1.00
2019-01-03T03:30:07.640Z,1.00
2019-01-03T03:33:14.750Z,1.47
2019-01-03T03:36:02.344Z,1.33
2019-01-03T03:38:57.339Z,1.30
2019-01-03T03:41:46.549Z,2.23
2019-01-03T03:44:47.114Z,1.20
2019-01-03T03:47:37.014Z,0.60
2019-01-03T03:50:41.761Z,1.27
2019-01-03T03:53:29.253Z,1.07
2019-01-03T03:56:16.734Z,2.77
2019-01-03T03:59:17.419Z,1.20
2019-01-03T04:02:06.268Z,1.00
2019-01-03T04:05:13.106Z,1.13
2019-01-03T04:08:01.251Z,1.13
2019-01-03T04:10:48.895Z,1.23
2019-01-03T04:13:56.345Z,1.20
2019-01-03T04:16:51.042Z,1.47
2019-01-03T04:19:48.481Z,1.10
2019-01-03T04:22:39.593Z,1.93
2019-01-03T04:25:31.679Z,1.03
2019-01-03T04:28:18.541Z,1.67
2019-01-03T04:31:12.967Z,1.60
2019-01-03T04:34:07.811Z,1.40
2019-01-03T04:36:59.762Z,0.80
2019-01-03T04:39:54.999Z,1.30
2019-01-03T04:42:43.867Z,1.30
2019-01-03T04:45:23.419Z,1.33
2019-01-03T04:48:27.535Z,1.23
2019-01-03T04:51:17.546Z,1.23
2019-01-03T04:54:18.592Z,1.10
2019-01-03T04:57:16.720Z,1.00
2019-01-03T04:59:54.455Z,3.00
2019-01-03T05:02:34.201Z,1.40
2019-01-03T05:05:41.654Z,1.10
2019-01-03T05:08:35.979Z,2.13
2019-01-03T05:11:34.228Z,0.80
2019-01-03T05:14:32.312Z,1.67
2019-01-03T05:17:33.534Z,1.03
2019-01-03T05:20:28.605Z,2.33
2019-01-03T05:23:20.538Z,1.07
2019-01-03T05:26:18.497Z,2.60
2019-01-03T05:29:07.411Z,1.07
2019-01-03T05:31:51.609Z,1.27
2019-01-03T05:34:39.242Z,1.40
2019-01-03T05:37:21.961Z,1.03
2019-01-03T05:40:06.086Z,1.53
2019-01-03T05:42:54.186Z,0.90
2019-01-03T05:45:52.110Z,0.80
2019-01-03T05:48:49.170Z,0.90
2019-01-03T05:51:36.755Z,0.97
2019-01-03T05:54:44.309Z,0.90
2019-01-03T05:57:31.609Z,1.00
2019-01-03T06:00:19.686Z,0.70
2019-01-03T06:03:00.260Z,1.20
2019-01-03T06:05:50.201Z,1.07
2019-01-03T06:08:47.691Z,0.70
2019-01-03T06:11:35.146Z,0.97
2019-01-03T06:14:26.751Z,1.00
2019-01-03T06:17:14.343Z,1.03
2019-01-03T06:20:15.454Z,0.80
2019-01-03T06:23:07.378Z,0.70
2019-01-03T06:25:49.605Z,0.90
2019-01-03T06:28:36.986Z,1.23
2019-01-03T06:31:38.141Z,0.90
2019-01-03T06:34:33.553Z,0.80
2019-01-03T06:37:21.903Z,1.10
2019-01-03T06:40:16.742Z,0.90
2019-01-03T06:43:26.022Z,1.10
2019-01-03T06:46:08.263Z,0.83
2019-01-03T06:49:09.225Z,1.30
2019-01-03T06:51:57.525Z,1.33
2019-01-03T06:54:58.678Z,1.70
2019-01-03T06:57:56.473Z,2.10
2019-01-03T07:00:44.185Z,1.23
2019-01-03T07:03:45.533Z,2.10
2019-01-03T07:06:38.560Z,0.87
2019-01-03T07:09:43.127Z,1.30
2019-01-03T07:12:31.239Z,2.23
2019-01-03T07:15:22.620Z,1.20
2019-01-03T07:18:12.366Z,1.60
2019-01-03T07:21:10.378Z,1.20
2019-01-03T07:23:54.798Z,1.50
2019-01-03T07:26:59.032Z,1.57
2019-01-03T07:29:54.280Z,2.93
2019-01-03T07:32:47.517Z,2.23
2019-01-03T07:35:34.852Z,1.83
2019-01-03T07:38:32.981Z,1.40
2019-01-03T07:41:25.019Z,1.30
2019-01-03T07:44:12.708Z,1.93
2019-01-03T07:46:54.720Z,1.90
2019-01-03T07:49:42.214Z,1.10
2019-01-03T07:52:27.798Z,1.40
2019-01-03T07:55:08.333Z,1.00
2019-01-03T07:57:57.374Z,1.27
2019-01-03T08:00:49.926Z,1.70
2019-01-03T08:03:44.599Z,1.93
2019-01-03T08:06:24.237Z,1.93
2019-01-03T08:09:16.878Z,1.20
2019-01-03T08:12:24.235Z,1.23
2019-01-03T08:15:16.159Z,1.03
2019-01-03T08:18:06.578Z,1.73
2019-01-03T08:20:44.610Z,1.43
2019-01-03T08:23:32.900Z,1.47
2019-01-03T08:26:36.864Z,1.10
2019-01-03T08:29:25.012Z,1.37
2019-01-03T08:32:20.266Z,2.30
2019-01-03T08:35:09.542Z,1.80
2019-01-03T08:37:57.227Z,1.03
2019-01-03T08:40:45.010Z,1.27
2019-01-03T08:43:46.271Z,1.20
2019-01-03T08:46:35.425Z,1.70
2019-01-03T08:49:25.413Z,1.90
2019-01-03T08:52:13.291Z,1.80
2019-01-03T08:55:03.119Z,2.07
2019-01-03T08:57:58.249Z,1.30
2019-01-03T09:00:40.937Z,1.87
2019-01-03T09:03:28.856Z,6.27
2019-01-03T09:06:23.859Z,2.00
2019-01-03T09:09:11.808Z,2.10
2019-01-03T09:12:11.534Z,1.63
2019-01-03T09:14:59.355Z,1.77
2019-01-03T09:17:48.200Z,1.17
2019-01-03T09:20:36.517Z,1.70
2019-01-03T09:23:24.099Z,1.30
2019-01-03T09:26:19.087Z,1.67
2019-01-03T09:29:08.567Z,1.97
2019-01-03T09:31:56.204Z,1.40
2019-01-03T09:34:54.322Z,1.73
2019-01-03T09:37:41.927Z,2.50
2019-01-03T09:40:27.108Z,1.93
2019-01-03T09:43:14.933Z,1.77
2019-01-03T09:45:44.866Z,1.70
2019-01-03T09:48:14.672Z,1.63
2019-01-03T09:50:44.588Z,1.77
2019-01-03T09:53:14.428Z,1.87
2019-01-03T09:55:44.256Z,1.17
2019-01-03T09:58:14.072Z,1.30
2019-01-03T10:00:44.031Z,1.20
2019-01-03T10:03:13.937Z,2.03
2019-01-03T10:05:44.037Z,2.03
2019-01-03T10:08:19.561Z,1.17
2019-01-03T10:10:45.664Z,1.23
2019-01-03T10:13:16.595Z,2.23
2019-01-03T10:15:46.654Z,1.60
2019-01-03T10:18:16.529Z,1.50
2019-01-03T10:20:46.964Z,2.70
2019-01-03T10:23:16.695Z,2.93
2019-01-03T10:25:46.987Z,4.00
2019-01-03T10:28:16.735Z,2.03
2019-01-03T10:30:46.463Z,2.23
2019-01-03T10:33:16.432Z,3.40
2019-01-03T10:35:46.983Z,2.83
2019-01-03T10:38:20.972Z,1.90
2019-01-03T10:40:48.450Z,1.10
2019-01-03T10:43:18.441Z,1.40
2019-01-03T10:45:48.650Z,1.20
2019-01-03T10:48:18.951Z,1.17
2019-01-03T10:50:49.397Z,1.90
2019-01-03T10:53:21.587Z,0.93
2019-01-03T10:55:51.692Z,0.70
2019-01-03T10:58:21.450Z,1.00
2019-01-03T11:00:51.396Z,0.97
2019-01-03T11:03:21.214Z,1.20
2019-01-03T11:05:51.381Z,1.67
2019-01-03T11:08:21.221Z,1.77
2019-01-03T11:10:50.998Z,0.83
2019-01-03T11:13:20.865Z,1.43
2019-01-03T11:15:50.736Z,1.87
2019-01-03T11:18:21.466Z,2.70
2019-01-03T11:20:51.657Z,2.20
2019-01-03T11:23:21.591Z,2.27
2019-01-03T11:25:52.620Z,1.47
2019-01-03T11:28:22.372Z,1.10
2019-01-03T11:30:52.171Z,1.00
2019-01-03T11:33:22.080Z,0.87
2019-01-03T11:35:52.108Z,0.90
2019-01-03T11:38:22.782Z,0.63
2019-01-03T11:40:52.541Z,0.70
2019-01-03T11:43:22.458Z,0.43
2019-01-03T11:45:52.325Z,0.70
2019-01-03T11:48:22.177Z,0.90
2019-01-03T11:50:52.049Z,0.80
2019-01-03T11:53:22.057Z,1.50
2019-01-03T11:55:51.981Z,0.70
2019-01-03T11:58:21.868Z,0.93
2019-01-03T12:00:51.783Z,0.80
2019-01-03T12:03:21.568Z,0.87
2019-01-03T12:05:52.950Z,0.70
2019-01-03T12:08:24.739Z,1.00
2019-01-03T12:10:54.555Z,1.00
2019-01-03T12:13:24.331Z,0.90
2019-01-03T12:15:54.471Z,0.67
2019-01-03T12:18:24.691Z,0.70
2019-01-03T12:20:54.752Z,1.10
2019-01-03T12:23:24.556Z,0.50
2019-01-03T12:25:54.810Z,0.70
2019-01-03T12:28:25.283Z,0.73
2019-01-03T12:30:55.614Z,0.77
2019-01-03T12:33:25.460Z,0.97
2019-01-03T12:35:55.388Z,1.43
2019-01-03T12:38:25.222Z,0.80
2019-01-03T12:40:56.106Z,0.97
2019-01-03T12:43:25.867Z,0.90
2019-01-03T12:45:55.751Z,1.27
2019-01-03T12:48:25.539Z,1.07
2019-01-03T12:50:55.385Z,0.70
2019-01-03T12:53:26.617Z,1.20
2019-01-03T12:55:56.693Z,0.80
2019-01-03T12:58:26.468Z,1.00
2019-01-03T13:00:58.356Z,0.77
2019-01-03T13:03:28.669Z,0.70
2019-01-03T13:06:00.211Z,0.60
2019-01-03T13:08:32.214Z,1.43
2019-01-03T13:11:02.326Z,0.83
2019-01-03T13:13:32.344Z,0.70
2019-01-03T13:16:02.384Z,0.77
2019-01-03T13:18:32.307Z,0.87
2019-01-03T13:21:02.336Z,0.60
2019-01-03T13:23:32.749Z,0.67
2019-01-03T13:26:02.703Z,0.80
2019-01-03T13:28:41.218Z,1.00
2019-01-03T13:31:16.027Z,0.63
2019-01-03T13:33:52.544Z,0.50
2019-01-03T13:36:24.845Z,0.90
2019-01-03T13:38:55.449Z,0.50
2019-01-03T13:41:27.988Z,0.80
2019-01-03T13:43:57.882Z,0.60
2019-01-03T13:46:27.840Z,0.60
2019-01-03T13:48:57.684Z,0.70
2019-01-03T13:51:27.617Z,0.73
2019-01-03T13:53:57.501Z,2.20
2019-01-03T13:56:27.618Z,1.80
2019-01-03T13:58:58.796Z,0.70
2019-01-03T14:01:29.431Z,1.50
2019-01-03T14:04:01.142Z,0.90
2019-01-03T14:06:31.129Z,1.00
2019-01-03T14:09:00.875Z,1.63
2019-01-03T14:11:30.725Z,1.20
2019-01-03T14:14:00.839Z,1.37
2019-01-03T14:16:30.597Z,1.17
2019-01-03T14:19:00.278Z,1.20
2019-01-03T14:21:30.149Z,0.90
2019-01-03T14:24:03.003Z,1.90
2019-01-03T14:26:32.760Z,1.00
2019-01-03T14:29:02.485Z,1.37
2019-01-03T14:31:34.631Z,0.93
2019-01-03T14:34:06.284Z,1.07
2019-01-03T14:36:40.750Z,0.83
2019-01-03T14:39:10.782Z,1.60
2019-01-03T14:41:40.765Z,0.70
2019-01-03T14:44:10.675Z,1.20
2019-01-03T14:46:40.572Z,0.80
2019-01-03T14:49:11.023Z,0.83
2019-01-03T14:51:41.198Z,0.70
2019-01-03T14:54:10.958Z,0.80
2019-01-03T14:56:43.049Z,0.97
2019-01-03T14:59:12.950Z,1.03
2019-01-03T15:01:42.774Z,0.87
2019-01-03T15:04:12.613Z,1.00
2019-01-03T15:06:42.717Z,1.10
2019-01-03T15:09:12.972Z,0.80
2019-01-03T15:11:42.798Z,1.73
2019-01-03T15:14:14.867Z,1.67
2019-01-03T15:16:44.706Z,0.57
2019-01-03T15:19:14.617Z,0.90
2019-01-03T15:21:44.364Z,0.90
2019-01-03T15:24:14.462Z,1.80
2019-01-03T15:26:44.193Z,0.60
2019-01-03T15:29:14.104Z,0.90
2019-01-03T15:31:44.104Z,0.83
2019-01-03T15:34:14.031Z,0.63
2019-01-03T15:36:43.892Z,1.20
2019-01-03T15:39:13.780Z,0.93
2019-01-03T15:41:43.641Z,0.80
2019-01-03T15:44:14.697Z,1.70
2019-01-03T15:46:45.986Z,0.93
2019-01-03T15:49:16.267Z,1.67
2019-01-03T15:51:47.721Z,1.20
2019-01-03T15:54:17.626Z,1.30
2019-01-03T15:56:48.169Z,1.47
2019-01-03T15:59:17.981Z,1.27
2019-01-03T16:05:15.190Z,1.07
2019-01-03T16:07:44.903Z,1.10
2019-01-03T16:10:14.578Z,1.70
2019-01-03T16:12:44.309Z,1.20
2019-01-03T16:15:14.059Z,1.00
2019-01-03T16:17:43.750Z,0.87
2019-01-03T16:20:13.435Z,1.30
2019-01-03T16:22:43.116Z,1.07
2019-01-03T16:25:12.868Z,1.30
2019-01-03T16:27:42.658Z,1.73
2019-01-03T16:30:12.750Z,1.77
2019-01-03T16:32:42.437Z,1.40
2019-01-03T16:35:12.190Z,1.10
2019-01-03T16:37:42.050Z,1.00
2019-01-03T16:40:11.803Z,1.30
2019-01-03T16:42:43.325Z,2.20
2019-01-03T16:45:14.434Z,1.10
2019-01-03T16:47:44.474Z,1.63
2019-01-03T16:50:16.138Z,1.23
2019-01-03T16:52:46.073Z,1.03
2019-01-03T16:55:16.039Z,0.93
2019-01-03T16:57:45.959Z,1.30
2019-01-03T17:00:18.455Z,2.00
2019-01-03T17:02:48.276Z,1.33
2019-01-03T17:05:18.208Z,3.40
2019-01-03T17:07:48.166Z,2.50
2019-01-03T17:10:19.193Z,1.27
2019-01-03T17:12:48.933Z,1.30
2019-01-03T17:15:18.686Z,1.63
2019-01-03T17:17:48.394Z,1.73
2019-01-03T17:20:18.093Z,0.93
2019-01-03T17:22:48.743Z,1.23
2019-01-03T17:25:18.530Z,0.97
2019-01-03T17:27:48.207Z,1.40
2019-01-03T17:30:17.877Z,1.80
2019-01-03T17:32:47.713Z,1.97
2019-01-03T17:35:17.474Z,1.70
2019-01-03T17:37:47.175Z,1.77
2019-01-03T17:40:17.111Z,1.43
2019-01-03T17:42:47.477Z,1.60
2019-01-03T17:45:17.238Z,2.10
2019-01-03T17:47:47.003Z,1.17
2019-01-03T17:50:16.678Z,1.57
2019-01-03T17:52:46.381Z,1.83
2019-01-03T17:55:16.214Z,2.00
2019-01-03T17:57:46.034Z,1.90
2019-01-03T18:00:21.170Z,3.53
2019-01-03T18:02:51.590Z,3.63
2019-01-03T18:05:21.283Z,8.00
2019-01-03T18:07:50.970Z,6.77
2019-01-03T18:10:20.652Z,6.37
2019-01-03T18:12:50.342Z,7.60
2019-01-03T18:15:20.122Z,7.10
2019-01-03T18:17:49.927Z,6.10
2019-01-03T18:20:19.656Z,5.23
2019-01-03T18:22:49.435Z,6.17
2019-01-03T18:25:19.165Z,3.40
2019-01-03T18:27:48.990Z,4.67
2019-01-03T18:30:18.742Z,4.10
2019-01-03T18:32:48.414Z,4.07
2019-01-03T18:35:18.202Z,3.80
2019-01-03T18:37:48.019Z,4.40
2019-01-03T18:40:18.051Z,4.10
2019-01-03T18:42:48.477Z,3.87
2019-01-03T18:45:23.487Z,3.60
2019-01-03T18:47:53.172Z,3.70
2019-01-03T18:50:22.921Z,2.60
2019-01-03T18:52:52.650Z,4.57
2019-01-03T18:55:22.410Z,12.00
2019-01-03T18:57:52.178Z,14.40
2019-01-03T19:00:21.870Z,14.70
2019-01-03T19:02:51.594Z,7.70
2019-01-03T19:05:21.615Z,2.93
2019-01-03T19:07:51.286Z,2.10
2019-01-03T19:10:20.969Z,2.07
2019-01-03T19:12:50.688Z,3.53
2019-01-03T19:15:21.698Z,1.77
2019-01-03T19:17:51.386Z,2.00
2019-01-03T19:20:21.230Z,3.10
2019-01-03T19:22:50.922Z,3.70
2019-01-03T19:25:21.446Z,2.60
2019-01-03T19:27:52.390Z,2.13
2019-01-03T19:30:22.275Z,1.80
2019-01-03T19:32:51.988Z,2.47
2019-01-03T19:35:21.674Z,2.20
2019-01-03T19:37:51.482Z,2.50
2019-01-03T19:40:21.230Z,2.70
2019-01-03T19:42:50.974Z,2.20
2019-01-03T19:45:20.658Z,2.17
2019-01-03T19:47:50.325Z,2.63
2019-01-03T19:50:20.546Z,4.00
2019-01-03T19:52:50.225Z,3.27
2019-01-03T19:55:19.923Z,3.23
2019-01-03T19:57:49.603Z,2.30
2019-01-03T20:00:19.666Z,2.57
2019-01-03T20:02:49.363Z,2.27
2019-01-03T20:05:19.232Z,2.43
2019-01-03T20:07:49.542Z,2.90
2019-01-03T20:10:19.230Z,5.17
2019-01-03T20:12:48.923Z,4.43
2019-01-03T20:15:19.556Z,4.57
2019-01-03T20:17:49.454Z,5.00
2019-01-03T20:20:19.547Z,5.13
2019-01-03T20:22:49.345Z,4.87
2019-01-03T20:25:19.025Z,6.87
2019-01-03T20:27:48.966Z,12.63
2019-01-03T20:30:18.758Z,11.40
2019-01-03T20:32:48.506Z,11.57
2019-01-03T20:35:18.198Z,11.93
2019-01-03T20:37:47.910Z,11.03
2019-01-03T20:40:17.743Z,9.07
2019-01-03T20:42:48.010Z,7.30
2019-01-03T20:45:17.878Z,5.70
2019-01-03T20:47:47.642Z,4.47
2019-01-03T20:50:17.434Z,4.90
2019-01-03T20:52:48.150Z,6.47
2019-01-03T20:55:17.914Z,4.40
2019-01-03T20:57:47.795Z,2.87
2019-01-03T21:00:17.610Z,2.73
2019-01-03T21:02:59.636Z,2.47
2019-01-03T21:05:30.351Z,2.50
2019-01-03T21:08:00.088Z,2.67
2019-01-03T21:10:29.841Z,2.70
2019-01-03T21:13:00.030Z,2.83
2019-01-03T21:15:29.867Z,2.73
2019-01-03T21:17:59.547Z,3.60
2019-01-03T21:20:29.358Z,3.67
2019-01-03T21:22:59.290Z,5.67
2019-01-03T21:25:29.053Z,4.63
2019-01-03T21:27:58.814Z,4.13
2019-01-03T21:30:29.098Z,3.80
2019-01-03T21:32:58.974Z,4.27
2019-01-03T21:35:28.746Z,3.87
2019-01-03T21:37:58.483Z,3.20
2019-01-03T21:40:28.232Z,3.77
2019-01-03T21:42:57.921Z,3.00
2019-01-03T21:45:27.609Z,3.00
2019-01-03T21:47:57.470Z,2.23
2019-01-03T21:50:27.289Z,2.53
2019-01-03T21:52:56.971Z,2.63
2019-01-03T21:55:26.647Z,1.97
2019-01-03T21:57:56.445Z,1.90
2019-01-03T22:00:27.189Z,2.60
2019-01-03T22:02:56.910Z,3.00
2019-01-03T22:05:26.586Z,2.70
2019-01-03T22:07:56.318Z,2.70
2019-01-03T22:10:26.109Z,2.70
2019-01-03T22:12:55.801Z,3.07
2019-01-03T22:15:25.670Z,2.83
2019-01-03T22:17:55.350Z,2.93
2019-01-03T22:20:25.113Z,3.10
2019-01-03T22:22:54.799Z,2.77
2019-01-03T22:25:25.015Z,3.07
2019-01-03T22:27:54.698Z,3.53
2019-01-03T22:30:25.226Z,2.23
2019-01-03T22:32:54.953Z,2.87
2019-01-03T22:35:24.722Z,3.93
2019-01-03T22:37:54.421Z,4.27
2019-01-03T22:40:24.245Z,4.37
2019-01-03T22:42:54.002Z,5.40
2019-01-03T22:45:24.350Z,5.20
2019-01-03T22:47:54.022Z,2.40
2019-01-03T22:50:23.963Z,2.83
2019-01-03T22:52:53.646Z,2.97
2019-01-03T22:55:23.346Z,3.70
2019-01-03T22:57:53.008Z,3.10
2019-01-03T23:00:30.238Z,2.77
2019-01-03T23:03:00.157Z,3.63
2019-01-03T23:05:29.949Z,3.43
2019-01-03T23:07:59.766Z,2.70
2019-01-03T23:10:29.519Z,3.07
2019-01-03T23:12:59.294Z,4.27
2019-01-03T23:15:28.994Z,2.03
2019-01-03T23:17:58.697Z,2.50
2019-01-03T23:20:28.477Z,4.07
2019-01-03T23:22:58.174Z,2.97
2019-01-03T23:25:27.949Z,2.93
2019-01-03T23:27:57.732Z,3.60
2019-01-03T23:30:27.490Z,3.67
2019-01-03T23:32:57.223Z,3.60
2019-01-03T23:35:27.017Z,5.60
2019-01-03T23:37:56.807Z,4.30
2019-01-03T23:40:26.914Z,3.87
2019-01-03T23:42:58.082Z,3.07
2019-01-03T23:45:28.918Z,2.30
2019-01-03T23:48:00.235Z,1.63
2019-01-03T23:50:34.381Z,2.00
2019-01-03T23:53:04.666Z,1.43
2019-01-03T23:55:39.186Z,1.33
2019-01-03T23:58:08.956Z,1.97
